sensor_id;sensor_type;location;lat;lon;timestamp;pressure;altitude;pressure_sealevel;temperature;humidity
35694;BME280;21812;55.536;37.664;2023-12-20T00:01:22;98021.16;;;4.27;85.78
35694;BME280;21812;55.536;37.664;2023-12-20T00:03:47;98023.19;;;4.54;86.54
35694;BME280;21812;55.536;37.664;2023-12-20T00:06:13;98015.25;;;4.54;85.16
35694;BME280;21812;55.536;37.664;2023-12-20T00:08:39;98028.72;;;4.30;83.67
35694;BME280;21812;55.536;37.664;2023-12-20T00:11:04;98020.38;;;4.34;84.50
35694;BME280;21812;55.536;37.664;2023-12-20T00:13:30;98027.34;;;4.41;83.98
35694;BME280;21812;55.536;37.664;2023-12-20T00:15:56;98018.56;;;4.62;84.54
35694;BME280;21812;55.536;37.664;2023-12-20T00:18:22;98018.56;;;4.62;82.78
35694;BME280;21812;55.536;37.664;2023-12-20T00:20:47;98011.59;;;4.55;83.66
35694;BME280;21812;55.536;37.664;2023-12-20T00:23:13;98027.09;;;4.64;84.79
35694;BME280;21812;55.536;37.664;2023-12-20T00:25:38;98032.03;;;4.67;83.86
35694;BME280;21812;55.536;37.664;2023-12-20T00:28:04;98029.84;;;4.78;83.08
35694;BME280;21812;55.536;37.664;2023-12-20T00:30:30;98030.53;;;4.58;82.20
35694;BME280;21812;55.536;37.664;2023-12-20T00:32:56;98022.03;;;4.35;82.44
35694;BME280;21812;55.536;37.664;2023-12-20T00:35:22;98032.34;;;4.29;82.70
35694;BME280;21812;55.536;37.664;2023-12-20T00:37:47;98043.63;;;4.17;83.26
35694;BME280;21812;55.536;37.664;2023-12-20T00:40:13;98049.13;;;4.15;83.69
35694;BME280;21812;55.536;37.664;2023-12-20T00:42:39;98046.16;;;4.25;84.18
35694;BME280;21812;55.536;37.664;2023-12-20T00:45:05;98053.84;;;4.26;83.76
35694;BME280;21812;55.536;37.664;2023-12-20T00:47:31;98039.03;;;4.25;83.97
35694;BME280;21812;55.536;37.664;2023-12-20T00:49:57;98038.06;;;4.33;84.91
35694;BME280;21812;55.536;37.664;2023-12-20T00:52:24;98052.78;;;4.42;84.31
35694;BME280;21812;55.536;37.664;2023-12-20T00:54:50;98036.63;;;4.30;84.74
35694;BME280;21812;55.536;37.664;2023-12-20T00:57:16;98047.69;;;4.41;85.14
35694;BME280;21812;55.536;37.664;2023-12-20T00:59:42;98039.50;;;4.36;84.75
35694;BME280;21812;55.536;37.664;2023-12-20T01:02:08;98035.34;;;4.26;85.34
35694;BME280;21812;55.536;37.664;2023-12-20T01:04:34;98031.09;;;4.25;85.05
35694;BME280;21812;55.536;37.664;2023-12-20T01:07:00;98026.50;;;4.34;85.19
35694;BME280;21812;55.536;37.664;2023-12-20T01:09:26;98020.97;;;4.29;84.65
35694;BME280;21812;55.536;37.664;2023-12-20T01:11:54;98028.13;;;4.35;85.26
35694;BME280;21812;55.536;37.664;2023-12-20T01:14:20;98033.16;;;4.30;84.83
35694;BME280;21812;55.536;37.664;2023-12-20T01:16:46;98026.19;;;4.22;84.26
35694;BME280;21812;55.536;37.664;2023-12-20T01:19:12;98024.16;;;4.24;84.88
35694;BME280;21812;55.536;37.664;2023-12-20T01:21:39;97996.69;;;4.19;85.28
35694;BME280;21812;55.536;37.664;2023-12-20T01:24:05;98000.50;;;4.38;84.88
35694;BME280;21812;55.536;37.664;2023-12-20T01:26:31;98016.13;;;4.33;84.14
35694;BME280;21812;55.536;37.664;2023-12-20T01:28:57;97998.06;;;4.36;83.73
35694;BME280;21812;55.536;37.664;2023-12-20T01:31:23;98002.81;;;4.19;83.48
35694;BME280;21812;55.536;37.664;2023-12-20T01:33:48;98007.25;;;4.19;84.69
35694;BME280;21812;55.536;37.664;2023-12-20T01:36:14;98015.94;;;4.34;84.17
35694;BME280;21812;55.536;37.664;2023-12-20T01:38:40;98001.41;;;4.23;83.40
35694;BME280;21812;55.536;37.664;2023-12-20T01:41:05;98011.72;;;4.18;83.72
35694;BME280;21812;55.536;37.664;2023-12-20T01:43:31;98028.97;;;4.14;84.21
35694;BME280;21812;55.536;37.664;2023-12-20T01:45:57;98031.13;;;4.04;83.57
35694;BME280;21812;55.536;37.664;2023-12-20T01:48:24;98024.44;;;4.08;84.08
35694;BME280;21812;55.536;37.664;2023-12-20T01:50:51;98011.09;;;4.16;83.66
35694;BME280;21812;55.536;37.664;2023-12-20T01:53:19;97975.44;;;4.05;84.40
35694;BME280;21812;55.536;37.664;2023-12-20T01:55:47;97935.00;;;4.05;83.70
35694;BME280;21812;55.536;37.664;2023-12-20T01:58:14;97987.75;;;4.48;82.84
35694;BME280;21812;55.536;37.664;2023-12-20T02:00:40;97986.97;;;4.47;83.01
35694;BME280;21812;55.536;37.664;2023-12-20T02:03:06;97987.22;;;4.59;82.11
35694;BME280;21812;55.536;37.664;2023-12-20T02:05:35;97946.00;;;4.37;83.67
35694;BME280;21812;55.536;37.664;2023-12-20T02:08:01;97994.69;;;4.84;82.93
35694;BME280;21812;55.536;37.664;2023-12-20T02:10:27;98000.66;;;4.64;81.26
35694;BME280;21812;55.536;37.664;2023-12-20T02:12:55;97971.75;;;4.56;81.67
35694;BME280;21812;55.536;37.664;2023-12-20T02:15:21;97981.50;;;4.56;81.84
35694;BME280;21812;55.536;37.664;2023-12-20T02:17:47;97975.50;;;4.75;81.43
35694;BME280;21812;55.536;37.664;2023-12-20T02:20:33;97968.63;;;4.81;82.35
35694;BME280;21812;55.536;37.664;2023-12-20T02:22:59;97952.50;;;5.17;82.59
35694;BME280;21812;55.536;37.664;2023-12-20T02:25:25;97970.56;;;5.62;80.81
35694;BME280;21812;55.536;37.664;2023-12-20T02:27:50;97970.09;;;5.52;78.96
35694;BME280;21812;55.536;37.664;2023-12-20T02:30:17;97974.03;;;5.76;81.08
35694;BME280;21812;55.536;37.664;2023-12-20T02:32:43;97961.81;;;5.95;79.14
35694;BME280;21812;55.536;37.664;2023-12-20T02:35:08;97951.03;;;6.03;77.97
35694;BME280;21812;55.536;37.664;2023-12-20T02:37:34;97954.72;;;6.15;76.66
35694;BME280;21812;55.536;37.664;2023-12-20T02:39:59;97966.94;;;6.03;75.97
35694;BME280;21812;55.536;37.664;2023-12-20T02:42:25;97966.50;;;5.79;76.16
35694;BME280;21812;55.536;37.664;2023-12-20T02:44:51;97960.75;;;5.56;77.10
35694;BME280;21812;55.536;37.664;2023-12-20T02:47:16;97956.69;;;5.66;78.31
35694;BME280;21812;55.536;37.664;2023-12-20T02:49:42;97970.50;;;5.42;77.44
35694;BME280;21812;55.536;37.664;2023-12-20T02:52:08;97972.09;;;5.36;79.95
35694;BME280;21812;55.536;37.664;2023-12-20T02:54:33;97971.50;;;5.34;79.38
35694;BME280;21812;55.536;37.664;2023-12-20T02:56:59;97963.94;;;5.31;79.14
35694;BME280;21812;55.536;37.664;2023-12-20T02:59:25;97971.34;;;5.56;78.89
35694;BME280;21812;55.536;37.664;2023-12-20T03:01:50;97973.56;;;5.45;77.49
35694;BME280;21812;55.536;37.664;2023-12-20T03:04:16;97968.03;;;5.34;78.25
35694;BME280;21812;55.536;37.664;2023-12-20T03:06:42;97948.53;;;5.55;80.58
35694;BME280;21812;55.536;37.664;2023-12-20T03:09:07;97979.50;;;5.61;78.22
35694;BME280;21812;55.536;37.664;2023-12-20T03:11:33;97965.97;;;5.22;77.77
35694;BME280;21812;55.536;37.664;2023-12-20T03:13:59;97975.41;;;4.97;79.75
35694;BME280;21812;55.536;37.664;2023-12-20T03:16:24;97977.91;;;4.70;80.02
35694;BME280;21812;55.536;37.664;2023-12-20T03:18:51;97953.75;;;4.38;81.31
35694;BME280;21812;55.536;37.664;2023-12-20T03:21:16;97966.75;;;4.40;82.54
35694;BME280;21812;55.536;37.664;2023-12-20T03:23:42;97958.28;;;4.51;82.80
35694;BME280;21812;55.536;37.664;2023-12-20T03:26:09;97960.03;;;4.72;82.84
35694;BME280;21812;55.536;37.664;2023-12-20T03:28:36;97942.06;;;5.02;84.15
35694;BME280;21812;55.536;37.664;2023-12-20T03:31:02;97961.84;;;5.13;81.94
35694;BME280;21812;55.536;37.664;2023-12-20T03:33:28;97956.50;;;5.00;80.36
35694;BME280;21812;55.536;37.664;2023-12-20T03:35:54;97965.44;;;4.92;80.77
35694;BME280;21812;55.536;37.664;2023-12-20T03:38:21;97959.28;;;4.78;80.66
35694;BME280;21812;55.536;37.664;2023-12-20T03:40:46;97964.06;;;4.61;80.79
35694;BME280;21812;55.536;37.664;2023-12-20T03:43:12;97969.03;;;4.43;81.36
35694;BME280;21812;55.536;37.664;2023-12-20T03:45:38;97965.66;;;4.27;82.11
35694;BME280;21812;55.536;37.664;2023-12-20T03:48:04;97962.75;;;4.16;82.69
35694;BME280;21812;55.536;37.664;2023-12-20T03:50:30;97973.88;;;4.11;83.07
35694;BME280;21812;55.536;37.664;2023-12-20T03:52:56;97982.81;;;4.10;83.63
35694;BME280;21812;55.536;37.664;2023-12-20T03:55:21;97980.09;;;4.03;83.55
35694;BME280;21812;55.536;37.664;2023-12-20T03:57:47;97978.66;;;4.01;83.92
35694;BME280;21812;55.536;37.664;2023-12-20T04:00:13;97971.94;;;3.98;84.20
35694;BME280;21812;55.536;37.664;2023-12-20T04:02:40;97926.00;;;3.71;84.36
35694;BME280;21812;55.536;37.664;2023-12-20T04:05:07;97975.78;;;3.96;84.40
35694;BME280;21812;55.536;37.664;2023-12-20T04:07:34;97989.75;;;3.89;84.56
35694;BME280;21812;55.536;37.664;2023-12-20T04:10:00;97989.91;;;3.88;84.82
35694;BME280;21812;55.536;37.664;2023-12-20T04:12:27;97933.63;;;3.59;84.98
35694;BME280;21812;55.536;37.664;2023-12-20T04:14:53;97978.41;;;3.96;84.86
35694;BME280;21812;55.536;37.664;2023-12-20T04:17:20;97991.25;;;3.99;84.98
35694;BME280;21812;55.536;37.664;2023-12-20T04:19:45;97989.81;;;3.96;84.77
35694;BME280;21812;55.536;37.664;2023-12-20T04:22:11;97981.31;;;4.01;84.75
35694;BME280;21812;55.536;37.664;2023-12-20T04:24:37;97947.63;;;3.81;84.42
35694;BME280;21812;55.536;37.664;2023-12-20T04:27:03;97988.88;;;4.04;84.33
35694;BME280;21812;55.536;37.664;2023-12-20T04:29:28;97990.22;;;4.00;84.50
35694;BME280;21812;55.536;37.664;2023-12-20T04:31:54;97994.69;;;3.99;84.33
35694;BME280;21812;55.536;37.664;2023-12-20T04:34:20;98001.22;;;4.03;84.38
35694;BME280;21812;55.536;37.664;2023-12-20T04:36:46;97991.63;;;3.96;84.23
35694;BME280;21812;55.536;37.664;2023-12-20T04:39:13;98004.09;;;4.02;84.19
35694;BME280;21812;55.536;37.664;2023-12-20T04:41:38;98009.72;;;3.99;84.24
35694;BME280;21812;55.536;37.664;2023-12-20T04:44:05;98007.47;;;3.96;83.97
35694;BME280;21812;55.536;37.664;2023-12-20T04:46:31;98007.47;;;3.96;83.98
35694;BME280;21812;55.536;37.664;2023-12-20T04:48:57;98014.00;;;4.00;83.82
35694;BME280;21812;55.536;37.664;2023-12-20T04:51:23;98002.44;;;4.01;83.61
35694;BME280;21812;55.536;37.664;2023-12-20T04:53:48;98001.00;;;3.98;83.41
35694;BME280;21812;55.536;37.664;2023-12-20T04:56:14;97994.59;;;4.07;83.37
35694;BME280;21812;55.536;37.664;2023-12-20T04:58:40;98007.97;;;4.06;83.14
35694;BME280;21812;55.536;37.664;2023-12-20T05:01:08;98012.81;;;4.02;83.31
35694;BME280;21812;55.536;37.664;2023-12-20T05:03:33;98007.53;;;4.02;83.00
35694;BME280;21812;55.536;37.664;2023-12-20T05:05:59;97998.81;;;4.02;83.27
35694;BME280;21812;55.536;37.664;2023-12-20T05:08:25;98012.63;;;4.04;83.46
35694;BME280;21812;55.536;37.664;2023-12-20T05:10:56;97960.66;;;3.83;83.52
35694;BME280;21812;55.536;37.664;2023-12-20T05:13:22;98000.88;;;4.06;83.23
35694;BME280;21812;55.536;37.664;2023-12-20T05:15:48;98019.16;;;4.08;83.21
35694;BME280;21812;55.536;37.664;2023-12-20T05:18:14;98021.81;;;4.08;83.05
35694;BME280;21812;55.536;37.664;2023-12-20T05:20:39;98034.00;;;4.09;83.18
35694;BME280;21812;55.536;37.664;2023-12-20T05:23:05;98021.41;;;4.11;82.87
35694;BME280;21812;55.536;37.664;2023-12-20T05:25:31;98021.41;;;4.11;82.77
35694;BME280;21812;55.536;37.664;2023-12-20T05:27:57;98015.19;;;3.97;82.73
35694;BME280;21812;55.536;37.664;2023-12-20T05:30:23;98031.84;;;3.98;82.69
35694;BME280;21812;55.536;37.664;2023-12-20T05:32:49;98028.41;;;3.97;82.94
35694;BME280;21812;55.536;37.664;2023-12-20T05:35:14;98044.06;;;3.99;83.26
35694;BME280;21812;55.536;37.664;2023-12-20T05:37:41;98038.78;;;3.99;82.99
35694;BME280;21812;55.536;37.664;2023-12-20T05:40:07;98040.19;;;3.95;82.68
35694;BME280;21812;55.536;37.664;2023-12-20T05:42:37;98046.53;;;4.00;82.95
35694;BME280;21812;55.536;37.664;2023-12-20T05:45:04;98044.50;;;4.02;82.80
35694;BME280;21812;55.536;37.664;2023-12-20T05:47:32;98032.69;;;3.98;82.68
35694;BME280;21812;55.536;37.664;2023-12-20T05:49:58;98038.22;;;4.03;82.96
35694;BME280;21812;55.536;37.664;2023-12-20T05:52:24;98029.47;;;4.03;82.57
35694;BME280;21812;55.536;37.664;2023-12-20T05:54:50;98025.84;;;4.04;82.51
35694;BME280;21812;55.536;37.664;2023-12-20T05:57:15;98023.56;;;4.01;82.38
35694;BME280;21812;55.536;37.664;2023-12-20T05:59:41;98026.66;;;4.04;82.38
35694;BME280;21812;55.536;37.664;2023-12-20T06:02:07;98028.28;;;4.05;82.32
35694;BME280;21812;55.536;37.664;2023-12-20T06:04:32;98021.56;;;4.03;82.26
35694;BME280;21812;55.536;37.664;2023-12-20T06:06:59;98037.03;;;4.06;82.13
35694;BME280;21812;55.536;37.664;2023-12-20T06:09:28;98036.00;;;4.07;81.99
35694;BME280;21812;55.536;37.664;2023-12-20T06:11:54;98031.31;;;4.02;81.95
35694;BME280;21812;55.536;37.664;2023-12-20T06:14:20;98040.66;;;4.05;82.31
35694;BME280;21812;55.536;37.664;2023-12-20T06:16:46;98043.75;;;4.08;81.95
35694;BME280;21812;55.536;37.664;2023-12-20T06:19:11;98044.78;;;4.07;81.82
35694;BME280;21812;55.536;37.664;2023-12-20T06:21:37;98043.56;;;4.10;81.75
35694;BME280;21812;55.536;37.664;2023-12-20T06:24:03;98052.75;;;4.14;81.73
35694;BME280;21812;55.536;37.664;2023-12-20T06:26:29;98050.09;;;4.14;81.27
35694;BME280;21812;55.536;37.664;2023-12-20T06:28:55;98059.28;;;4.18;81.56
35694;BME280;21812;55.536;37.664;2023-12-20T06:31:20;98048.34;;;4.21;81.35
35694;BME280;21812;55.536;37.664;2023-12-20T06:33:46;98060.09;;;4.19;80.62
35694;BME280;21812;55.536;37.664;2023-12-20T06:36:12;98039.78;;;4.19;80.89
35694;BME280;21812;55.536;37.664;2023-12-20T06:38:38;98036.09;;;4.14;80.86
35694;BME280;21812;55.536;37.664;2023-12-20T06:41:05;98029.97;;;4.13;80.87
35694;BME280;21812;55.536;37.664;2023-12-20T06:43:31;98028.34;;;4.12;80.71
35694;BME280;21812;55.536;37.664;2023-12-20T06:45:58;98049.91;;;4.16;80.45
35694;BME280;21812;55.536;37.664;2023-12-20T06:48:24;98039.53;;;4.14;80.67
35694;BME280;21812;55.536;37.664;2023-12-20T06:50:49;98041.59;;;4.19;80.58
35694;BME280;21812;55.536;37.664;2023-12-20T06:53:15;98032.84;;;4.18;80.38
35694;BME280;21812;55.536;37.664;2023-12-20T06:55:43;98033.66;;;4.19;80.41
35694;BME280;21812;55.536;37.664;2023-12-20T06:58:27;98038.06;;;4.33;80.32
35694;BME280;21812;55.536;37.664;2023-12-20T07:00:53;98041.53;;;4.34;79.85
35694;BME280;21812;55.536;37.664;2023-12-20T07:03:19;98042.16;;;4.36;79.60
35694;BME280;21812;55.536;37.664;2023-12-20T07:05:44;98039.06;;;4.32;79.21
35694;BME280;21812;55.536;37.664;2023-12-20T07:08:10;98051.28;;;4.33;79.69
35694;BME280;21812;55.536;37.664;2023-12-20T07:10:36;98055.75;;;4.33;79.45
35694;BME280;21812;55.536;37.664;2023-12-20T07:13:02;98062.66;;;4.34;79.52
35694;BME280;21812;55.536;37.664;2023-12-20T07:15:28;98062.28;;;4.37;79.85
35694;BME280;21812;55.536;37.664;2023-12-20T07:17:55;98057.25;;;4.42;79.60
35694;BME280;21812;55.536;37.664;2023-12-20T07:20:20;98044.66;;;4.44;79.52
35694;BME280;21812;55.536;37.664;2023-12-20T07:22:46;98047.53;;;4.49;79.44
35694;BME280;21812;55.536;37.664;2023-12-20T07:25:12;98043.66;;;4.45;79.51
35694;BME280;21812;55.536;37.664;2023-12-20T07:27:38;98055.09;;;4.52;79.30
35694;BME280;21812;55.536;37.664;2023-12-20T07:30:04;98041.34;;;4.35;79.26
35694;BME280;21812;55.536;37.664;2023-12-20T07:32:30;98059.50;;;4.45;79.47
35694;BME280;21812;55.536;37.664;2023-12-20T07:34:57;98067.84;;;4.42;79.38
35694;BME280;21812;55.536;37.664;2023-12-20T07:37:23;98080.47;;;4.46;79.43
35694;BME280;21812;55.536;37.664;2023-12-20T07:39:48;98078.25;;;4.50;79.44
35694;BME280;21812;55.536;37.664;2023-12-20T07:42:14;98076.63;;;4.49;79.50
35694;BME280;21812;55.536;37.664;2023-12-20T07:44:40;98080.13;;;4.56;79.31
35694;BME280;21812;55.536;37.664;2023-12-20T07:47:05;98088.25;;;4.55;79.24
35694;BME280;21812;55.536;37.664;2023-12-20T07:49:31;98084.78;;;4.54;79.37
35694;BME280;21812;55.536;37.664;2023-12-20T07:51:57;98082.75;;;4.49;79.48
35694;BME280;21812;55.536;37.664;2023-12-20T07:54:23;98076.88;;;4.54;79.50
35694;BME280;21812;55.536;37.664;2023-12-20T07:56:48;98072.78;;;4.52;79.25
35694;BME280;21812;55.536;37.664;2023-12-20T07:59:14;98074.81;;;4.49;79.24
35694;BME280;21812;55.536;37.664;2023-12-20T08:01:40;98075.38;;;4.45;79.30
35694;BME280;21812;55.536;37.664;2023-12-20T08:04:06;98091.63;;;4.42;79.35
35694;BME280;21812;55.536;37.664;2023-12-20T08:06:31;98074.19;;;4.47;79.61
35694;BME280;21812;55.536;37.664;2023-12-20T08:08:57;98067.28;;;4.53;79.29
35694;BME280;21812;55.536;37.664;2023-12-20T08:11:23;98055.91;;;4.53;79.14
35694;BME280;21812;55.536;37.664;2023-12-20T08:13:48;98077.25;;;4.51;79.07
35694;BME280;21812;55.536;37.664;2023-12-20T08:16:14;98075.88;;;4.55;79.08
35694;BME280;21812;55.536;37.664;2023-12-20T08:18:41;98078.09;;;4.58;79.18
35694;BME280;21812;55.536;37.664;2023-12-20T08:21:07;98069.19;;;4.59;78.91
35694;BME280;21812;55.536;37.664;2023-12-20T08:23:34;98065.69;;;4.59;79.06
35694;BME280;21812;55.536;37.664;2023-12-20T08:26:06;98081.81;;;4.64;79.12
35694;BME280;21812;55.536;37.664;2023-12-20T08:28:33;98069.56;;;4.56;79.11
35694;BME280;21812;55.536;37.664;2023-12-20T08:30:59;98067.88;;;4.48;79.22
35694;BME280;21812;55.536;37.664;2023-12-20T08:33:25;98050.19;;;4.49;79.64
35694;BME280;21812;55.536;37.664;2023-12-20T08:35:50;98068.94;;;4.54;79.37
35694;BME280;21812;55.536;37.664;2023-12-20T08:38:16;98054.72;;;4.55;79.44
35694;BME280;21812;55.536;37.664;2023-12-20T08:40:43;98059.34;;;4.53;79.45
35694;BME280;21812;55.536;37.664;2023-12-20T08:43:09;98062.44;;;4.57;79.81
35694;BME280;21812;55.536;37.664;2023-12-20T08:45:35;98054.38;;;4.65;79.72
35694;BME280;21812;55.536;37.664;2023-12-20T08:48:01;98046.63;;;4.63;79.39
35694;BME280;21812;55.536;37.664;2023-12-20T08:50:26;98060.41;;;4.59;79.58
35694;BME280;21812;55.536;37.664;2023-12-20T08:52:52;98060.63;;;4.57;79.98
35694;BME280;21812;55.536;37.664;2023-12-20T08:55:19;98066.34;;;4.61;80.25
35694;BME280;21812;55.536;37.664;2023-12-20T08:57:44;98068.59;;;4.64;80.15
35694;BME280;21812;55.536;37.664;2023-12-20T09:00:11;98069.03;;;4.67;80.20
35694;BME280;21812;55.536;37.664;2023-12-20T09:02:36;98052.78;;;4.70;80.20
35694;BME280;21812;55.536;37.664;2023-12-20T09:05:03;98077.22;;;4.73;80.01
35694;BME280;21812;55.536;37.664;2023-12-20T09:07:30;98057.88;;;4.72;79.80
35694;BME280;21812;55.536;37.664;2023-12-20T09:09:58;98066.22;;;4.76;80.31
35694;BME280;21812;55.536;37.664;2023-12-20T09:12:25;98046.25;;;4.66;79.89
35694;BME280;21812;55.536;37.664;2023-12-20T09:14:51;98071.09;;;4.72;80.04
35694;BME280;21812;55.536;37.664;2023-12-20T09:17:18;98055.66;;;4.76;80.06
35694;BME280;21812;55.536;37.664;2023-12-20T09:19:45;98058.09;;;4.70;80.08
35694;BME280;21812;55.536;37.664;2023-12-20T09:22:11;98057.59;;;4.60;80.37
35694;BME280;21812;55.536;37.664;2023-12-20T09:24:37;98058.09;;;4.70;80.11
35694;BME280;21812;55.536;37.664;2023-12-20T09:27:04;98068.25;;;4.74;80.29
35694;BME280;21812;55.536;37.664;2023-12-20T09:29:31;98054.41;;;4.72;80.17
35694;BME280;21812;55.536;37.664;2023-12-20T09:31:57;98054.28;;;4.80;79.78
35694;BME280;21812;55.536;37.664;2023-12-20T09:34:23;98063.66;;;4.82;79.73
35694;BME280;21812;55.536;37.664;2023-12-20T09:36:48;98052.44;;;4.80;79.47
35694;BME280;21812;55.536;37.664;2023-12-20T09:39:15;98056.53;;;4.83;79.56
35694;BME280;21812;55.536;37.664;2023-12-20T09:41:45;98052.03;;;4.83;79.49
35694;BME280;21812;55.536;37.664;2023-12-20T09:44:14;98003.84;;;4.53;79.51
35694;BME280;21812;55.536;37.664;2023-12-20T09:46:43;98038.78;;;4.77;79.42
35694;BME280;21812;55.536;37.664;2023-12-20T09:49:10;98052.63;;;4.79;79.49
35694;BME280;21812;55.536;37.664;2023-12-20T09:51:36;98032.47;;;4.78;79.72
35694;BME280;21812;55.536;37.664;2023-12-20T09:54:05;98037.00;;;4.84;79.48
35694;BME280;21812;55.536;37.664;2023-12-20T09:56:31;98025.59;;;4.83;79.39
35694;BME280;21812;55.536;37.664;2023-12-20T09:58:57;98034.38;;;4.90;79.09
35694;BME280;21812;55.536;37.664;2023-12-20T10:01:23;98051.94;;;4.98;79.00
35694;BME280;21812;55.536;37.664;2023-12-20T10:03:51;98000.28;;;4.67;78.38
35694;BME280;21812;55.536;37.664;2023-12-20T10:06:19;98045.78;;;4.91;78.56
35694;BME280;21812;55.536;37.664;2023-12-20T10:08:45;98054.97;;;4.95;78.63
35694;BME280;21812;55.536;37.664;2023-12-20T10:11:11;98057.19;;;4.92;78.42
35694;BME280;21812;55.536;37.664;2023-12-20T10:13:40;98061.91;;;4.96;78.66
35694;BME280;21812;55.536;37.664;2023-12-20T10:16:07;98064.28;;;4.91;78.39
35694;BME280;21812;55.536;37.664;2023-12-20T10:18:33;98048.25;;;4.93;78.51
35694;BME280;21812;55.536;37.664;2023-12-20T10:20:58;98057.38;;;4.90;78.45
35694;BME280;21812;55.536;37.664;2023-12-20T10:23:24;98061.44;;;4.86;78.67
35694;BME280;21812;55.536;37.664;2023-12-20T10:25:57;98064.69;;;4.88;78.62
35694;BME280;21812;55.536;37.664;2023-12-20T10:28:23;98061.81;;;4.83;78.79
35694;BME280;21812;55.536;37.664;2023-12-20T10:30:53;98065.19;;;4.70;79.01
35694;BME280;21812;55.536;37.664;2023-12-20T10:33:27;98058.47;;;4.67;79.50
35694;BME280;21812;55.536;37.664;2023-12-20T10:35:54;98048.78;;;4.53;79.91
35694;BME280;21812;55.536;37.664;2023-12-20T10:38:20;98051.94;;;4.63;80.02
35694;BME280;21812;55.536;37.664;2023-12-20T10:40:46;98045.22;;;4.61;79.80
35694;BME280;21812;55.536;37.664;2023-12-20T10:43:12;98042.13;;;4.57;80.13
35694;BME280;21812;55.536;37.664;2023-12-20T10:45:39;98054.38;;;4.65;79.78
35694;BME280;21812;55.536;37.664;2023-12-20T10:48:07;98045.81;;;4.63;80.20
35694;BME280;21812;55.536;37.664;2023-12-20T10:50:36;98030.06;;;4.48;80.20
35694;BME280;21812;55.536;37.664;2023-12-20T10:53:04;98059.88;;;4.70;79.82
35694;BME280;21812;55.536;37.664;2023-12-20T10:55:30;98050.34;;;4.69;79.63
35694;BME280;21812;55.536;37.664;2023-12-20T10:58:01;98029.91;;;4.56;79.85
35694;BME280;21812;55.536;37.664;2023-12-20T11:00:28;98048.25;;;4.64;79.70
35694;BME280;21812;55.536;37.664;2023-12-20T11:02:56;98041.06;;;4.52;79.74
35694;BME280;21812;55.536;37.664;2023-12-20T11:06:02;98062.53;;;4.70;79.88
35694;BME280;21812;55.536;37.664;2023-12-20T11:08:27;98039.41;;;4.50;79.78
35694;BME280;21812;55.536;37.664;2023-12-20T11:11:12;98003.81;;;4.46;79.86
35694;BME280;21812;55.536;37.664;2023-12-20T11:14:01;98063.22;;;4.79;79.75
35694;BME280;21812;55.536;37.664;2023-12-20T11:16:31;98033.69;;;4.47;79.50
35694;BME280;21812;55.536;37.664;2023-12-20T11:18:57;98058.84;;;4.64;79.98
35694;BME280;21812;55.536;37.664;2023-12-20T11:21:22;98066.97;;;4.63;79.94
35694;BME280;21812;55.536;37.664;2023-12-20T11:23:48;98063.31;;;4.64;80.02
35694;BME280;21812;55.536;37.664;2023-12-20T11:26:15;98057.16;;;4.57;79.80
35694;BME280;21812;55.536;37.664;2023-12-20T11:28:42;98067.50;;;4.52;80.05
35694;BME280;21812;55.536;37.664;2023-12-20T11:31:08;98062.66;;;4.55;80.16
35694;BME280;21812;55.536;37.664;2023-12-20T11:33:37;98039.13;;;4.39;80.01
35694;BME280;21812;55.536;37.664;2023-12-20T11:36:13;98065.91;;;4.57;80.07
35694;BME280;21812;55.536;37.664;2023-12-20T11:38:53;98079.97;;;4.64;80.11
35694;BME280;21812;55.536;37.664;2023-12-20T11:41:22;98015.88;;;4.27;80.16
35694;BME280;21812;55.536;37.664;2023-12-20T11:43:48;98082.34;;;4.53;80.20
35694;BME280;21812;55.536;37.664;2023-12-20T11:46:14;98069.13;;;4.53;80.41
35694;BME280;21812;55.536;37.664;2023-12-20T11:48:40;98056.25;;;4.43;80.66
35694;BME280;21812;55.536;37.664;2023-12-20T11:51:10;98041.41;;;4.42;80.72
35694;BME280;21812;55.536;37.664;2023-12-20T11:53:36;98076.34;;;4.65;80.43
35694;BME280;21812;55.536;37.664;2023-12-20T11:56:03;98061.63;;;4.56;80.36
35694;BME280;21812;55.536;37.664;2023-12-20T11:58:29;98070.38;;;4.57;80.76
35694;BME280;21812;55.536;37.664;2023-12-20T12:00:56;98067.94;;;4.55;80.72
35694;BME280;21812;55.536;37.664;2023-12-20T12:03:22;98059.78;;;4.57;80.67
35694;BME280;21812;55.536;37.664;2023-12-20T12:05:49;98064.72;;;4.60;80.55
35694;BME280;21812;55.536;37.664;2023-12-20T12:08:15;98072.81;;;4.58;80.69
35694;BME280;21812;55.536;37.664;2023-12-20T12:10:40;98067.94;;;4.55;80.92
35694;BME280;21812;55.536;37.664;2023-12-20T12:13:06;98078.50;;;4.55;80.72
35694;BME280;21812;55.536;37.664;2023-12-20T12:15:32;98074.22;;;4.54;80.94
35694;BME280;21812;55.536;37.664;2023-12-20T12:17:58;98075.22;;;4.53;80.88
35694;BME280;21812;55.536;37.664;2023-12-20T12:20:24;98089.81;;;4.49;80.96
35694;BME280;21812;55.536;37.664;2023-12-20T12:23:22;98088.44;;;4.53;81.37
35694;BME280;21812;55.536;37.664;2023-12-20T12:25:48;98077.63;;;4.48;80.90
35694;BME280;21812;55.536;37.664;2023-12-20T12:28:14;98082.47;;;4.44;81.08
35694;BME280;21812;55.536;37.664;2023-12-20T12:30:39;98077.19;;;4.44;81.19
35694;BME280;21812;55.536;37.664;2023-12-20T12:33:05;98081.91;;;4.49;81.24
35694;BME280;21812;55.536;37.664;2023-12-20T12:35:31;98089.28;;;4.54;81.17
35694;BME280;21812;55.536;37.664;2023-12-20T12:37:58;98028.28;;;4.27;80.79
35694;BME280;21812;55.536;37.664;2023-12-20T12:40:25;98096.25;;;4.61;80.82
35694;BME280;21812;55.536;37.664;2023-12-20T12:42:51;98096.63;;;4.58;80.46
35694;BME280;21812;55.536;37.664;2023-12-20T12:45:16;98098.38;;;4.51;80.50
35694;BME280;21812;55.536;37.664;2023-12-20T12:47:42;98096.13;;;4.48;80.57
35694;BME280;21812;55.536;37.664;2023-12-20T12:50:08;98101.16;;;4.43;80.71
35694;BME280;21812;55.536;37.664;2023-12-20T12:52:35;98092.47;;;4.49;80.87
35694;BME280;21812;55.536;37.664;2023-12-20T12:55:00;98096.75;;;4.50;80.46
35694;BME280;21812;55.536;37.664;2023-12-20T12:57:26;98101.25;;;4.49;80.61